Time;durP1;ratioP1;P1;durP2;ratioP2;P2;SDS_P1;SDS_P2;PMS_P1;PMS_P2;Temp;Humidity;BMP_temperature;BMP_pressure;BME280_temperature;BME280_humidity;BME280_pressure;Samples;Min_cycle;Max_cycle;Signal;HPM_P1;HPM_P2
2021/04/18 00:03:17;;;;;;;8.82;7.95;;;;;;;6.97;64.75;100441.69;10465726;28;20052;-66
2021/04/18 00:08:19;;;;;;;8.70;7.90;;;;;;;6.89;64.53;100444.34;10466840;28;20048;-69
2021/04/18 00:13:20;;;;;;;9.05;8.25;;;;;;;6.78;65.43;100452.31;10465280;28;20049;-66
2021/04/18 00:18:21;;;;;;;8.98;8.25;;;;;;;6.62;65.64;100445.50;10466331;28;20376;-66
2021/04/18 00:23:22;;;;;;;9.15;8.30;;;;;;;6.67;65.65;100448.94;10465879;28;20037;-66
2021/04/18 00:28:24;;;;;;;10.15;9.13;;;;;;;6.52;66.56;100441.25;10448862;28;20491;-67
2021/04/18 00:33:25;;;;;;;11.38;8.65;;;;;;;6.91;64.97;100441.75;10447927;28;20060;-66
2021/04/18 00:38:26;;;;;;;9.80;8.80;;;;;;;6.92;65.12;100435.63;10466276;28;20056;-66
2021/04/18 00:43:27;;;;;;;10.35;9.35;;;;;;;6.55;65.95;100434.25;10466620;28;20506;-66
2021/04/18 00:48:29;;;;;;;11.02;10.10;;;;;;;6.42;66.84;100435.25;10466653;28;20052;-65
2021/04/18 00:53:30;;;;;;;12.23;11.15;;;;;;;6.40;66.66;100434.38;10465994;28;20058;-65
2021/04/18 00:58:33;;;;;;;10.32;9.48;;;;;;;6.50;66.12;100422.09;10464918;28;20103;-67
2021/04/18 01:03:34;;;;;;;11.63;9.40;;;;;;;6.41;66.85;100437.84;10465130;28;20041;-66
2021/04/18 01:08:37;;;;;;;11.90;10.77;;;;;;;6.73;65.86;100433.22;10446716;28;20044;-66
2021/04/18 01:13:39;;;;;;;10.40;9.60;;;;;;;6.63;66.04;100434.16;10464180;28;20418;-66
2021/04/18 01:18:42;;;;;;;10.90;10.00;;;;;;;6.63;66.15;100420.25;10464156;28;20049;-66
2021/04/18 01:23:44;;;;;;;11.45;10.15;;;;;;;6.62;65.91;100422.00;10465115;28;20049;-66
2021/04/18 01:29:14;;;;;;;11.98;10.77;;;;;;;6.29;67.02;100424.03;10464909;28;20076;-65
2021/04/18 01:34:16;;;;;;;12.65;11.43;;;;;;;6.22;67.25;100417.09;10464257;28;20033;-66
2021/04/18 01:39:17;;;;;;;11.23;10.32;;;;;;;6.27;67.02;100422.28;10463997;28;20171;-66
2021/04/18 01:44:19;;;;;;;11.65;10.57;;;;;;;6.12;67.07;100425.03;10445332;28;20037;-66
2021/04/18 01:49:21;;;;;;;11.70;10.70;;;;;;;6.38;66.35;100415.25;10446222;28;20045;-67
2021/04/18 01:54:22;;;;;;;11.32;10.27;;;;;;;6.43;66.20;100423.03;10462889;28;20090;-67
2021/04/18 01:59:24;;;;;;;13.02;10.40;;;;;;;6.41;66.45;100420.44;10461035;28;20056;-66
2021/04/18 02:04:54;;;;;;;11.85;10.85;;;;;;;6.53;66.28;100409.88;10461583;28;20041;-66
2021/04/18 02:09:56;;;;;;;10.88;9.98;;;;;;;6.56;65.94;100412.47;10427003;28;20498;-65
2021/04/18 02:14:58;;;;;;;11.50;10.45;;;;;;;6.40;66.69;100410.88;10442906;28;20045;-66
2021/04/18 02:20:02;;;;;;;11.32;10.32;;;;;;;6.33;66.80;100406.59;10460867;28;20044;-66
2021/04/18 02:25:04;;;;;;;12.20;11.13;;;;;;;6.50;66.25;100409.03;10443683;28;20075;-66
2021/04/18 02:30:07;;;;;;;11.82;10.93;;;;;;;6.39;66.49;100411.75;10461702;28;20509;-66
2021/04/18 02:35:16;;;;;;;11.60;10.63;;;;;;;6.66;66.01;100413.25;10443429;28;20048;-66
2021/04/18 02:40:19;;;;;;;11.15;10.20;;;;;;;6.56;66.03;100412.47;10442215;28;20057;-66
2021/04/18 02:45:22;;;;;;;12.80;11.80;;;;;;;6.53;66.33;100415.09;10443625;28;20120;-67
2021/04/18 02:50:24;;;;;;;13.88;12.65;;;;;;;6.60;66.40;100408.09;10460914;28;20053;-67
2021/04/18 02:55:27;;;;;;;12.32;11.15;;;;;;;6.83;65.86;100398.25;10459141;28;20040;-66
2021/04/18 03:00:50;;;;;;;11.73;10.75;;;;;;;6.77;66.02;100392.22;10458394;28;20080;-66
2021/04/18 03:05:52;;;;;;;12.02;11.13;;;;;;;6.59;66.37;100398.50;10442148;28;20049;-66
2021/04/18 03:10:53;;;;;;;12.38;11.35;;;;;;;6.58;66.73;100400.25;10441026;28;20037;-66
2021/04/18 03:15:55;;;;;;;12.82;11.88;;;;;;;6.38;67.04;100394.38;10457975;28;20045;-66
2021/04/18 03:20:57;;;;;;;11.18;10.38;;;;;;;6.38;67.11;100399.59;10445702;28;20067;-67
2021/04/18 03:26:05;;;;;;;11.52;10.68;;;;;;;6.51;66.75;100403.81;10447701;28;20045;-67
2021/04/18 03:31:10;;;;;;;13.13;11.85;;;;;;;6.90;65.55;100398.19;10449581;28;20045;-66
2021/04/18 03:36:22;;;;;;;11.63;10.75;;;;;;;6.85;65.32;100392.16;10433021;28;20503;-67
2021/04/18 03:41:26;;;;;;;12.65;11.65;;;;;;;6.72;65.78;100399.25;10448139;28;20064;-66
2021/04/18 03:46:28;;;;;;;13.55;12.45;;;;;;;6.99;64.76;100393.72;10449582;28;20062;-66
2021/04/18 03:51:32;;;;;;;13.18;12.00;;;;;;;6.83;64.97;100395.66;10447314;28;20041;-66
2021/04/18 03:56:41;;;;;;;11.60;10.68;;;;;;;6.79;65.10;100390.47;10446979;28;20136;-66
2021/04/18 04:01:43;;;;;;;13.02;11.93;;;;;;;6.64;65.42;100391.50;10446434;28;20061;-66
2021/04/18 04:06:49;;;;;;;12.75;11.68;;;;;;;6.75;65.31;100389.63;10431290;28;20076;-66
2021/04/18 04:11:53;;;;;;;13.95;12.50;;;;;;;6.80;64.96;100382.59;10446001;28;20091;-66
2021/04/18 04:17:04;;;;;;;14.25;13.05;;;;;;;6.69;65.32;100386.25;10464753;28;20045;-67
2021/04/18 04:22:29;;;;;;;11.85;10.73;;;;;;;6.46;66.23;100389.03;10455214;28;20518;-66
2021/04/18 04:27:42;;;;;;;14.52;13.13;;;;;;;6.69;65.44;100376.66;10464210;28;20095;-65
2021/04/18 04:32:43;;;;;;;13.88;12.88;;;;;;;6.73;65.52;100372.22;10462225;28;20398;-65
2021/04/18 04:37:45;;;;;;;13.93;12.82;;;;;;;6.39;66.95;100382.16;10463168;28;20048;-66
2021/04/18 04:42:46;;;;;;;13.10;12.10;;;;;;;6.45;66.32;100377.75;10462919;28;20430;-66
2021/04/18 04:47:47;;;;;;;14.15;12.93;;;;;;;6.40;66.67;100374.31;10463515;28;20045;-66
2021/04/18 04:52:49;;;;;;;14.60;13.25;;;;;;;6.47;66.50;100377.75;10428756;28;20378;-66
2021/04/18 04:57:50;;;;;;;14.57;13.38;;;;;;;6.55;66.57;100383.72;10444552;28;20048;-68
2021/04/18 05:02:51;;;;;;;14.07;12.75;;;;;;;6.58;66.33;100386.31;10460755;28;20099;-67
2021/04/18 05:07:53;;;;;;;14.50;13.30;;;;;;;6.55;66.41;100387.25;10462111;28;20041;-68
2021/04/18 05:12:54;;;;;;;16.25;14.40;;;;;;;6.57;66.62;100401.13;10462061;28;20091;-68
2021/04/18 05:17:56;;;;;;;15.80;14.15;;;;;;;6.44;67.12;100409.97;10461276;28;20075;-67
2021/04/18 05:22:57;;;;;;;15.43;14.13;;;;;;;6.63;67.04;100415.88;10461694;28;20048;-68
2021/04/18 05:27:58;;;;;;;15.73;14.32;;;;;;;6.87;65.94;100414.78;10444971;28;20049;-68
2021/04/18 05:33:01;;;;;;;14.45;13.30;;;;;;;6.70;66.54;100416.69;10462221;28;20419;-68
2021/04/18 05:38:02;;;;;;;15.65;14.32;;;;;;;6.94;66.17;100405.13;10461249;28;20045;-67
2021/04/18 05:43:04;;;;;;;16.20;14.88;;;;;;;6.78;66.88;100399.19;10444520;28;20041;-67
2021/04/18 05:48:06;;;;;;;17.23;15.60;;;;;;;6.70;67.18;100411.47;10462023;28;20045;-68
2021/04/18 05:53:07;;;;;;;17.20;15.82;;;;;;;6.70;66.86;100406.25;10462601;28;20045;-68
2021/04/18 05:58:11;;;;;;;17.92;16.52;;;;;;;7.00;66.45;100400.69;10461566;28;20526;-68
2021/04/18 06:03:12;;;;;;;17.45;16.05;;;;;;;7.22;65.81;100405.69;10460424;28;20037;-68
2021/04/18 06:08:14;;;;;;;18.60;17.00;;;;;;;7.46;65.27;100400.13;10443639;28;20438;-68
2021/04/18 06:13:15;;;;;;;18.13;16.42;;;;;;;7.69;64.27;100399.81;10460310;28;20041;-68
2021/04/18 06:18:16;;;;;;;16.17;14.85;;;;;;;8.07;62.62;100390.53;10460865;28;20120;-69
2021/04/18 06:23:18;;;;;;;15.18;13.98;;;;;;;9.81;58.93;100378.41;10459602;28;20120;-69
2021/04/18 06:28:20;;;;;;;15.95;14.55;;;;;;;10.02;57.68;100379.69;10441710;28;20061;-69
2021/04/18 06:33:22;;;;;;;18.17;16.55;;;;;;;8.90;60.61;100391.72;10460288;28;20449;-68
2021/04/18 06:38:23;;;;;;;18.45;17.10;;;;;;;8.46;61.84;100388.19;10459943;28;20445;-68
2021/04/18 06:43:26;;;;;;;17.90;16.33;;;;;;;8.39;62.31;100383.91;10459469;28;20162;-69
2021/04/18 06:48:28;;;;;;;18.80;17.10;;;;;;;8.36;62.58;100390.03;10425174;28;20052;-68
2021/04/18 06:53:30;;;;;;;21.17;19.50;;;;;;;8.14;63.74;100392.13;10461053;28;20041;-69
2021/04/18 06:58:34;;;;;;;20.92;19.23;;;;;;;8.40;63.04;100388.25;10449070;28;20049;-68
2021/04/18 07:03:36;;;;;;;21.13;19.42;;;;;;;8.80;63.01;100385.78;10447937;28;20041;-68
2021/04/18 07:08:38;;;;;;;21.63;19.40;;;;;;;9.82;61.01;100383.63;10465939;28;20094;-68
2021/04/18 07:13:42;;;;;;;21.05;19.15;;;;;;;10.19;59.67;100387.16;10468333;28;20091;-69
2021/04/18 07:18:43;;;;;;;21.75;19.80;;;;;;;10.25;58.06;100393.16;10467665;28;20041;-69
2021/04/18 07:23:45;;;;;;;23.15;20.55;;;;;;;10.56;57.91;100381.84;10466161;28;20047;-69
2021/04/18 07:28:47;;;;;;;22.25;20.33;;;;;;;9.98;59.43;100389.41;10465671;28;20041;-69
2021/04/18 07:34:04;;;;;;;22.13;20.13;;;;;;;10.21;59.04;100380.94;10465659;28;20102;-68
2021/04/18 07:39:08;;;;;;;24.92;22.42;;;;;;;9.26;61.62;100390.13;10465851;28;20383;-68
2021/04/18 07:44:15;;;;;;;22.55;20.42;;;;;;;9.97;59.89;100379.81;10465557;28;20417;-68
2021/04/18 07:49:17;;;;;;;;;;;;;;;10.13;59.61;100387.28;10447789;28;20059;-68
2021/04/18 07:54:18;;;;;;;22.80;21.00;;;;;;;10.23;59.36;100391.44;10441205;28;19927;-68
2021/04/18 07:59:24;;;;;;;23.13;21.13;;;;;;;10.35;59.29;100380.63;10446968;28;20111;-67
2021/04/18 08:04:26;;;;;;;23.70;21.63;;;;;;;10.19;59.70;100382.78;10440400;28;20042;-67
2021/04/18 08:09:28;;;;;;;25.00;22.85;;;;;;;10.23;60.23;100379.16;10431331;28;20052;-68
2021/04/18 08:14:29;;;;;;;26.10;23.80;;;;;;;9.92;60.82;100389.56;10427540;28;20077;-67
2021/04/18 08:19:31;;;;;;;25.60;23.10;;;;;;;10.20;59.92;100376.59;10422537;28;20076;-68
2021/04/18 08:24:35;;;;;;;25.00;22.63;;;;;;;10.52;59.21;100380.22;10420327;28;20033;-69
2021/04/18 08:30:04;;;;;;;24.27;22.08;;;;;;;10.89;58.72;100369.59;10444703;28;20067;-69
2021/04/18 08:35:14;;;;;;;23.85;21.95;;;;;;;10.78;58.18;100374.28;10446583;28;20052;-70
2021/04/18 08:40:15;;;;;;;26.70;24.23;;;;;;;10.42;59.29;100371.72;10463997;28;20079;-69
2021/04/18 08:45:46;;;;;;;25.58;23.63;;;;;;;10.16;60.61;100366.22;10464819;28;20045;-69
2021/04/18 08:50:56;;;;;;;26.05;23.20;;;;;;;10.02;61.61;100372.66;10463714;28;20037;-69
2021/04/18 08:56:04;;;;;;;25.65;23.55;;;;;;;10.11;61.02;100363.69;10464646;28;20083;-69
2021/04/18 09:01:08;;;;;;;26.00;23.42;;;;;;;10.08;60.79;100379.53;10445684;28;20052;-69
2021/04/18 09:06:30;;;;;;;27.48;24.73;;;;;;;10.07;61.41;100376.03;10464158;28;20128;-69
2021/04/18 09:11:38;;;;;;;27.98;25.58;;;;;;;9.91;61.56;100373.81;10464240;28;20049;-69
2021/04/18 09:16:39;;;;;;;28.45;24.70;;;;;;;9.92;61.62;100378.19;10463063;28;20110;-69
2021/04/18 09:21:41;;;;;;;26.48;24.33;;;;;;;9.88;62.07;100376.53;10464206;28;20090;-69
2021/04/18 09:26:57;;;;;;;28.65;25.80;;;;;;;9.59;63.33;100381.53;10445781;28;20045;-69
2021/04/18 09:32:08;;;;;;;26.80;24.27;;;;;;;9.54;63.10;100383.41;10462738;28;20037;-68
2021/04/18 09:37:14;;;;;;;29.25;26.70;;;;;;;9.64;62.96;100370.06;10444244;28;20049;-68
2021/04/18 09:42:15;;;;;;;28.08;25.40;;;;;;;9.70;62.72;100372.56;10444175;28;20041;-69
2021/04/18 09:47:21;;;;;;;27.95;25.50;;;;;;;9.25;64.23;100375.28;10461169;28;20075;-67
2021/04/18 09:52:35;;;;;;;31.90;27.60;;;;;;;9.37;64.22;100375.03;10461526;28;20037;-68
2021/04/18 09:58:23;;;;;;;29.00;26.23;;;;;;;8.99;65.91;100394.19;10462258;28;20041;-69
2021/04/18 10:03:39;;;;;;;29.48;27.00;;;;;;;8.72;67.30;100393.81;10254269;29;20412;-68
2021/04/18 10:08:55;;;;;;;29.50;26.30;;;;;;;8.52;68.61;100391.53;10253561;29;20517;-68
2021/04/18 10:13:58;;;;;;;27.80;25.80;;;;;;;8.65;68.64;100386.09;10253006;28;20709;-69
2021/04/18 10:19:17;;;;;;;32.38;29.25;;;;;;;8.53;69.61;100392.41;10253277;29;20059;-68
2021/04/18 10:24:34;;;;;;;26.27;24.27;;;;;;;8.52;69.89;100393.28;10236907;29;20047;-69
2021/04/18 10:29:38;;;;;;;26.90;24.95;;;;;;;8.75;69.55;100385.88;10252717;28;20538;-69
2021/04/18 10:34:39;;;;;;;26.77;24.63;;;;;;;8.71;70.87;100386.81;10304468;28;20451;-69
2021/04/18 10:39:40;;;;;;;25.98;23.83;;;;;;;9.07;69.76;100381.75;10459063;28;20044;-68
2021/04/18 10:44:42;;;;;;;24.67;22.73;;;;;;;9.08;69.18;100376.50;10460145;28;20069;-69
2021/04/18 10:49:49;;;;;;;25.58;23.55;;;;;;;9.15;70.15;100376.38;10460120;28;20391;-69
2021/04/18 10:54:50;;;;;;;23.83;22.20;;;;;;;9.13;69.87;100370.31;10459431;28;20520;-69
2021/04/18 10:59:51;;;;;;;21.88;20.48;;;;;;;9.24;69.23;100369.16;10440122;28;20042;-68
2021/04/18 11:04:53;;;;;;;22.80;21.30;;;;;;;9.19;70.06;100370.16;10424254;28;20040;-71
2021/04/18 11:09:54;;;;;;;23.02;20.60;;;;;;;9.27;69.49;100370.88;10461961;28;20044;-68
2021/04/18 11:14:55;;;;;;;21.45;19.95;;;;;;;9.45;69.57;100373.09;10462371;28;20048;-68
2021/04/18 11:19:57;;;;;;;23.08;21.48;;;;;;;9.43;69.19;100368.78;10461242;28;20045;-68
2021/04/18 11:25:00;;;;;;;23.85;21.98;;;;;;;9.31;69.58;100369.91;10461755;28;20053;-68
2021/04/18 11:30:10;;;;;;;24.73;23.13;;;;;;;9.17;70.65;100370.22;10461390;28;20045;-69
2021/04/18 11:35:12;;;;;;;22.05;20.55;;;;;;;9.48;69.36;100359.94;10460719;28;20041;-69
2021/04/18 11:40:15;;;;;;;22.58;20.85;;;;;;;9.34;69.66;100367.19;10463041;28;20041;-68
2021/04/18 11:45:16;;;;;;;23.75;22.05;;;;;;;9.48;70.25;100365.16;10468866;28;20127;-70
2021/04/18 11:50:17;;;;;;;22.13;20.63;;;;;;;9.49;69.84;100360.78;10449889;28;20396;-69
2021/04/18 11:55:22;;;;;;;19.90;18.60;;;;;;;9.88;68.98;100360.78;10467841;28;20052;-71
2021/04/18 12:00:23;;;;;;;18.67;17.35;;;;;;;9.75;70.06;100368.94;10466667;28;20091;-69
2021/04/18 12:05:25;;;;;;;17.58;16.38;;;;;;;9.68;69.70;100366.47;10467060;28;20041;-68
2021/04/18 12:10:26;;;;;;;22.38;20.67;;;;;;;9.92;69.26;100367.69;10465620;28;20056;-67
2021/04/18 12:15:27;;;;;;;18.17;16.88;;;;;;;9.90;68.81;100359.81;10447272;28;20376;-69
2021/04/18 12:20:29;;;;;;;12.88;11.88;;;;;;;10.04;68.33;100354.22;10447867;28;20056;-69
2021/04/18 12:25:30;;;;;;;8.93;8.32;;;;;;;9.69;67.29;100362.94;10467706;28;20403;-70
2021/04/18 12:30:31;;;;;;;7.75;7.25;;;;;;;9.83;66.94;100355.63;10465154;28;20396;-69
2021/04/18 12:35:33;;;;;;;8.63;8.02;;;;;;;9.69;66.80;100355.06;10447982;28;20127;-69
2021/04/18 12:40:35;;;;;;;10.63;9.93;;;;;;;10.06;67.51;100357.69;10467068;28;20048;-68
2021/04/18 12:45:36;;;;;;;6.30;5.80;;;;;;;10.24;64.25;100356.38;10466483;28;20051;-70
2021/04/18 12:50:38;;;;;;;6.47;6.07;;;;;;;10.49;64.19;100352.25;10465665;28;20110;-70
2021/04/18 12:55:39;;;;;;;6.95;6.55;;;;;;;10.41;64.76;100354.22;10468783;28;20045;-69
2021/04/18 13:00:40;;;;;;;7.22;6.72;;;;;;;10.60;64.50;100349.34;10449950;28;20052;-69
2021/04/18 13:05:42;;;;;;;6.32;5.93;;;;;;;10.75;64.47;100343.66;10465892;28;20051;-69
2021/04/18 13:10:44;;;;;;;2.92;2.72;;;;;;;11.22;61.89;100340.59;10464434;28;20045;-69
2021/04/18 13:15:46;;;;;;;5.85;5.47;;;;;;;10.73;65.38;100340.22;10463895;28;20037;-69
2021/04/18 13:20:47;;;;;;;5.43;5.03;;;;;;;11.01;62.62;100336.81;10442381;28;20458;-69
2021/04/18 13:25:49;;;;;;;4.45;4.15;;;;;;;11.08;61.28;100335.72;10439200;28;20048;-70
2021/04/18 13:30:50;;;;;;;6.45;6.03;;;;;;;11.18;62.56;100345.06;10420327;28;20053;-69
2021/04/18 13:35:52;;;;;;;4.15;3.88;;;;;;;11.15;60.75;100339.88;10433507;28;20076;-69
2021/04/18 13:40:53;;;;;;;4.90;4.60;;;;;;;11.04;62.24;100342.84;10460185;28;20478;-68
2021/04/18 13:45:54;;;;;;;4.85;4.47;;;;;;;10.75;63.47;100337.53;10443192;28;20041;-68
2021/04/18 13:50:55;;;;;;;5.10;4.80;;;;;;;10.76;62.22;100341.91;10441976;28;20067;-68
2021/04/18 13:55:58;;;;;;;6.43;5.97;;;;;;;10.61;63.48;100336.13;10403510;28;20503;-67
2021/04/18 14:01:00;;;;;;;6.10;5.70;;;;;;;10.54;63.04;100329.34;10419380;28;20042;-68
2021/04/18 14:06:18;;;;;;;5.90;5.50;;;;;;;10.43;63.90;100335.78;10419328;28;20120;-67
2021/04/18 14:11:20;;;;;;;5.50;5.13;;;;;;;10.54;62.16;100334.59;10401401;28;20051;-68
2021/04/18 14:16:21;;;;;;;4.18;3.88;;;;;;;10.65;61.96;100328.19;10400387;28;20111;-67
2021/04/18 14:21:22;;;;;;;4.60;4.30;;;;;;;10.56;63.26;100330.16;10418145;28;20096;-68
2021/04/18 14:26:24;;;;;;;4.97;4.68;;;;;;;10.83;62.20;100325.03;10427463;28;20048;-68
2021/04/18 14:31:26;;;;;;;5.85;5.45;;;;;;;10.63;63.85;100320.34;10459251;28;20060;-68
2021/04/18 14:36:28;;;;;;;5.30;4.90;;;;;;;10.70;62.76;100324.50;10441262;28;20517;-68
2021/04/18 14:41:30;;;;;;;5.03;4.63;;;;;;;10.25;63.13;100322.22;10458526;28;20052;-67
2021/04/18 14:46:34;;;;;;;6.13;5.72;;;;;;;10.68;63.96;100321.06;10441122;28;20049;-68
2021/04/18 14:51:36;;;;;;;5.55;5.15;;;;;;;10.65;63.55;100309.78;10441205;28;20037;-68
2021/04/18 14:56:38;;;;;;;5.18;4.88;;;;;;;10.91;63.00;100311.69;10459894;28;20045;-68
2021/04/18 15:01:40;;;;;;;5.43;5.03;;;;;;;10.60;63.45;100312.53;10459326;28;20044;-68
2021/04/18 15:06:41;;;;;;;5.18;4.78;;;;;;;10.47;63.32;100313.78;10459227;28;20041;-68
2021/04/18 15:11:43;;;;;;;4.57;4.28;;;;;;;10.73;61.97;100315.69;10459860;28;20056;-67
2021/04/18 15:16:45;;;;;;;4.93;4.53;;;;;;;10.49;62.71;100318.09;10466098;28;20044;-67
2021/04/18 15:21:49;;;;;;;3.85;3.65;;;;;;;10.61;62.23;100309.84;10467927;28;20041;-68
2021/04/18 15:26:52;;;;;;;4.00;3.63;;;;;;;10.76;61.54;100312.97;10467654;28;20049;-67
2021/04/18 15:31:54;;;;;;;3.42;3.22;;;;;;;10.54;62.36;100317.97;10433084;28;20037;-67
2021/04/18 15:36:56;;;;;;;3.20;3.00;;;;;;;10.65;62.19;100315.88;10468083;28;20044;-67
2021/04/18 15:41:58;;;;;;;3.15;2.95;;;;;;;10.46;61.71;100320.78;10466688;28;20514;-67
2021/04/18 15:46:59;;;;;;;3.20;3.00;;;;;;;10.28;62.90;100316.88;10467362;28;20053;-67
2021/04/18 15:52:07;;;;;;;3.85;3.55;;;;;;;10.26;62.68;100313.41;10468580;28;20108;-66
2021/04/18 15:57:11;;;;;;;14.70;13.50;;;;;;;10.04;64.17;100320.94;10432985;28;20054;-68
2021/04/18 16:02:17;;;;;;;5.30;4.90;;;;;;;9.24;67.31;100324.56;10467718;28;20546;-68
2021/04/18 16:07:20;;;;;;;5.30;4.90;;;;;;;9.53;67.37;100330.94;10466428;28;20053;-68
2021/04/18 16:12:21;;;;;;;6.25;5.85;;;;;;;9.48;67.90;100330.19;10465890;28;20041;-68
2021/04/18 16:17:22;;;;;;;7.13;6.63;;;;;;;9.21;67.99;100334.25;10466251;28;20044;-68
2021/04/18 16:22:26;;;;;;;6.30;5.80;;;;;;;9.24;68.47;100335.06;10467941;28;20051;-69
2021/04/18 16:27:27;;;;;;;6.18;5.75;;;;;;;9.25;67.98;100338.53;10465761;28;20049;-67
2021/04/18 16:32:29;;;;;;;5.82;5.43;;;;;;;9.18;68.61;100334.34;10447691;28;20106;-69
2021/04/18 16:37:31;;;;;;;5.50;5.10;;;;;;;9.05;69.00;100341.59;10448781;28;20045;-68
2021/04/18 16:42:32;;;;;;;5.47;5.07;;;;;;;9.15;68.61;100347.53;10463886;28;20045;-68
2021/04/18 16:47:33;;;;;;;4.78;4.38;;;;;;;9.09;69.22;100348.53;10463658;28;20061;-67
2021/04/18 16:52:35;;;;;;;3.47;3.22;;;;;;;9.05;68.84;100349.47;10463005;28;20070;-67
2021/04/18 16:57:37;;;;;;;3.22;2.92;;;;;;;8.85;69.43;100360.34;10462720;28;20091;-66
2021/04/18 17:02:38;;;;;;;3.88;3.58;;;;;;;8.93;69.27;100358.44;10462704;28;20101;-66
2021/04/18 17:07:57;;;;;;;3.38;3.13;;;;;;;8.97;68.65;100367.97;10462768;28;20044;-66
2021/04/18 17:12:59;;;;;;;3.42;3.22;;;;;;;9.04;68.29;100364.34;10444925;28;20449;-65
2021/04/18 17:18:01;;;;;;;4.65;4.35;;;;;;;8.93;68.63;100366.31;10461947;28;20084;-66
2021/04/18 17:23:02;;;;;;;4.95;4.55;;;;;;;8.63;69.83;100372.97;10443804;28;20037;-66
2021/04/18 17:28:05;;;;;;;5.15;4.82;;;;;;;8.76;69.19;100382.34;10445163;28;20048;-66
2021/04/18 17:33:06;;;;;;;5.30;4.95;;;;;;;8.53;70.13;100379.28;10462712;28;20045;-67
2021/04/18 17:38:07;;;;;;;6.05;5.65;;;;;;;8.48;70.59;100389.00;10462819;28;20053;-67
2021/04/18 17:43:09;;;;;;;5.35;4.95;;;;;;;8.46;70.83;100382.94;10462413;28;20049;-66
2021/04/18 17:48:10;;;;;;;6.00;5.60;;;;;;;8.65;70.65;100391.31;10461982;28;20076;-66
2021/04/18 17:53:12;;;;;;;7.28;6.72;;;;;;;8.51;71.46;100402.91;10462151;28;20132;-65
2021/04/18 17:58:13;;;;;;;6.43;5.90;;;;;;;8.44;71.60;100406.53;10461780;28;20041;-66
2021/04/18 18:03:16;;;;;;;4.93;4.53;;;;;;;8.44;71.45;100413.53;10461688;28;20068;-65
2021/04/18 18:08:17;;;;;;;5.43;5.03;;;;;;;8.47;70.91;100414.34;10427071;28;20053;-67
2021/04/18 18:13:19;;;;;;;4.90;4.60;;;;;;;8.47;70.71;100418.72;10459805;28;20460;-66
2021/04/18 18:18:20;;;;;;;5.15;4.85;;;;;;;8.43;70.79;100417.91;10459836;28;20148;-66
2021/04/18 18:23:22;;;;;;;5.28;4.88;;;;;;;8.47;70.09;100434.44;10442578;28;20525;-66
2021/04/18 18:28:23;;;;;;;5.60;5.10;;;;;;;8.73;70.32;100436.59;10444198;28;20083;-66
2021/04/18 18:33:25;;;;;;;5.20;4.78;;;;;;;8.46;70.49;100430.94;10451865;28;20072;-67
2021/04/18 18:38:26;;;;;;;5.53;5.15;;;;;;;8.38;70.62;100435.44;10439898;28;20068;-68
2021/04/18 18:43:27;;;;;;;5.65;5.22;;;;;;;8.43;70.68;100438.84;10421147;28;20042;-67
2021/04/18 18:48:31;;;;;;;7.57;7.07;;;;;;;8.35;71.41;100445.94;10423246;28;20100;-68
2021/04/18 18:53:39;;;;;;;6.78;6.28;;;;;;;8.29;71.74;100439.03;10397783;28;20084;-68
2021/04/18 18:58:42;;;;;;;7.45;6.95;;;;;;;8.47;71.42;100437.06;10413933;28;20546;-66
2021/04/18 19:04:03;;;;;;;8.13;7.53;;;;;;;8.36;71.59;100445.03;10429966;28;20045;-66
2021/04/18 19:09:05;;;;;;;9.30;8.65;;;;;;;8.27;71.83;100455.66;10429749;28;20415;-67
2021/04/18 19:14:07;;;;;;;7.70;7.10;;;;;;;8.33;72.46;100460.81;10427053;28;20041;-67
2021/04/18 19:19:09;;;;;;;6.88;6.38;;;;;;;8.33;72.09;100468.69;10410982;28;20454;-67
2021/04/18 19:24:10;;;;;;;7.43;6.85;;;;;;;8.39;72.09;100468.59;10427635;28;20064;-67
2021/04/18 19:29:12;;;;;;;6.53;6.03;;;;;;;8.34;72.46;100473.03;10428143;28;20092;-67
2021/04/18 19:34:13;;;;;;;7.32;6.82;;;;;;;8.43;72.23;100472.91;10410138;28;20049;-66
2021/04/18 19:39:15;;;;;;;8.55;7.95;;;;;;;8.57;71.91;100472.69;10428231;28;20048;-67
2021/04/18 19:44:16;;;;;;;7.88;7.38;;;;;;;8.27;72.33;100479.22;10411763;28;20045;-67
2021/04/18 19:49:18;;;;;;;10.15;9.23;;;;;;;8.18;72.70;100479.38;10411088;28;20049;-68
2021/04/18 19:54:21;;;;;;;8.75;8.15;;;;;;;8.26;72.57;100469.66;10427590;28;20041;-68
2021/04/18 19:59:23;;;;;;;7.60;7.10;;;;;;;8.30;72.42;100474.81;10410052;28;20041;-67
2021/04/18 20:04:24;;;;;;;7.85;7.25;;;;;;;8.18;72.52;100477.63;10428565;28;20561;-66
2021/04/18 20:09:43;;;;;;;8.38;7.43;;;;;;;7.76;73.13;100464.25;10427160;28;20051;-68
2021/04/18 20:14:45;;;;;;;7.97;7.47;;;;;;;7.45;73.82;100471.63;10427920;28;20045;-67
2021/04/18 20:19:46;;;;;;;7.82;7.32;;;;;;;7.42;73.58;100462.94;10427551;28;20094;-68
2021/04/18 20:24:48;;;;;;;8.32;7.72;;;;;;;7.28;73.48;100468.34;10425802;28;20061;-67
2021/04/18 20:29:52;;;;;;;9.27;8.57;;;;;;;7.25;73.85;100466.63;10427110;28;20585;-67
2021/04/18 20:34:54;;;;;;;8.88;8.13;;;;;;;7.51;73.83;100462.84;10427015;28;20038;-68
2021/04/18 20:39:55;;;;;;;8.70;8.10;;;;;;;7.25;74.24;100456.16;10426213;28;20045;-67
2021/04/18 20:44:56;;;;;;;10.45;9.45;;;;;;;7.23;74.60;100447.47;10425647;28;20045;-67
2021/04/18 20:49:58;;;;;;;11.32;10.50;;;;;;;7.20;74.24;100449.25;10426874;28;20057;-67
2021/04/18 20:54:59;;;;;;;9.90;9.10;;;;;;;6.75;74.40;100448.88;10427197;28;20048;-66
2021/04/18 21:00:01;;;;;;;11.02;10.23;;;;;;;6.44;75.45;100456.09;10407867;28;20057;-67
2021/04/18 21:05:03;;;;;;;15.15;13.95;;;;;;;6.40;76.49;100457.00;10423291;28;20042;-67
2021/04/18 21:10:06;;;;;;;14.82;13.82;;;;;;;6.56;76.44;100462.09;10405886;28;20049;-67
2021/04/18 21:15:08;;;;;;;12.18;11.07;;;;;;;6.85;74.86;100450.50;10421856;28;20044;-66
2021/04/18 21:20:11;;;;;;;11.90;11.00;;;;;;;6.49;75.28;100459.53;10424400;28;20046;-66
2021/04/18 21:25:13;;;;;;;11.10;10.25;;;;;;;6.55;74.81;100465.59;10424051;28;20041;-67
2021/04/18 21:30:14;;;;;;;13.02;12.13;;;;;;;6.44;75.31;100456.97;10406103;28;20041;-67
2021/04/18 21:35:16;;;;;;;13.73;12.73;;;;;;;6.37;75.87;100463.09;10425125;28;20033;-67
2021/04/18 21:40:17;;;;;;;12.32;11.52;;;;;;;6.13;76.42;100461.56;10423819;28;20145;-66
2021/04/18 21:45:18;;;;;;;12.23;11.32;;;;;;;5.95;76.37;100472.97;10423958;28;20045;-67
2021/04/18 21:50:20;;;;;;;10.90;10.10;;;;;;;5.93;75.39;100479.06;10424343;28;20060;-67
2021/04/18 21:55:21;;;;;;;13.15;12.25;;;;;;;5.79;76.07;100482.59;10406002;28;20073;-66
2021/04/18 22:00:22;;;;;;;12.48;11.32;;;;;;;5.83;75.71;100486.91;10423910;28;20458;-68
2021/04/18 22:05:24;;;;;;;11.38;10.60;;;;;;;5.73;75.49;100486.97;10424592;28;20093;-67
2021/04/18 22:10:25;;;;;;;13.50;12.50;;;;;;;5.80;75.34;100488.69;10422214;28;20079;-67
2021/04/18 22:15:27;;;;;;;12.65;11.43;;;;;;;5.73;75.42;100495.66;10422646;28;20064;-67
2021/04/18 22:20:28;;;;;;;12.18;10.98;;;;;;;5.62;76.00;100499.19;10421980;28;20411;-68
2021/04/18 22:25:29;;;;;;;12.82;11.68;;;;;;;5.63;75.92;100501.81;10422404;28;20049;-66
2021/04/18 22:30:31;;;;;;;13.13;12.23;;;;;;;5.74;75.97;100492.19;10422404;28;20080;-66
2021/04/18 22:35:33;;;;;;;13.93;12.93;;;;;;;5.78;76.02;100487.81;10421918;28;20484;-67
2021/04/18 22:40:34;;;;;;;14.60;13.50;;;;;;;5.71;76.18;100492.22;10422141;28;20052;-67
2021/04/18 22:45:36;;;;;;;13.90;13.00;;;;;;;5.64;76.58;100490.50;10421985;28;20443;-66
2021/04/18 22:50:37;;;;;;;14.85;13.77;;;;;;;5.69;76.16;100485.25;10421576;28;20045;-66
2021/04/18 22:55:39;;;;;;;15.40;14.30;;;;;;;5.64;76.48;100479.19;10420983;28;20045;-66
2021/04/18 23:00:40;;;;;;;16.23;15.13;;;;;;;5.65;76.69;100475.72;10420992;28;20072;-67
2021/04/18 23:05:41;;;;;;;15.55;14.52;;;;;;;5.66;76.56;100477.44;10421529;28;20044;-67
2021/04/18 23:10:42;;;;;;;16.90;15.73;;;;;;;5.56;77.01;100468.78;10421355;28;20042;-68